createdAt,value
2023-06-04T00:20:17.527Z,100310.53
2023-06-04T01:05:01.683Z,100327.63
2023-06-04T01:20:13.289Z,100335.51
2023-06-04T01:35:00.109Z,100340.11
2023-06-04T01:49:52.594Z,100342.27
2023-06-04T02:04:43.910Z,100337.23
2023-06-04T02:19:35.248Z,100339.66
2023-06-04T02:34:27.161Z,100348.11
2023-06-04T02:49:18.419Z,100345.65
2023-06-04T03:04:10.431Z,100351.69
2023-06-04T03:19:04.181Z,100366.47
2023-06-04T03:33:55.374Z,100375.11
2023-06-04T03:48:48.042Z,100373.24
2023-06-04T04:03:39.169Z,100381.48
2023-06-04T04:18:29.419Z,100396.02
2023-06-04T04:33:20.926Z,100401.21
2023-06-04T04:48:12.288Z,100411.91
2023-06-04T05:03:04.484Z,100415.98
2023-06-04T05:17:56.989Z,100413.14
2023-06-04T05:32:50.446Z,100419.10
2023-06-04T05:47:42.793Z,100428.99
2023-06-04T06:02:36.262Z,100433.95
2023-06-04T06:17:32.888Z,100439.58
2023-06-04T06:32:24.979Z,100444.92
2023-06-04T06:47:18.759Z,100454.27
2023-06-04T07:02:11.086Z,100452.97
2023-06-04T07:17:05.719Z,100459.27
2023-06-04T07:31:58.176Z,100463.03
2023-06-04T07:46:50.660Z,100468.44
2023-06-04T08:01:44.872Z,100465.27
2023-06-04T08:16:37.592Z,100457.44
2023-06-04T08:31:31.171Z,100459.19
2023-06-04T08:46:23.522Z,100467.53
2023-06-04T09:01:16.850Z,100460.24
2023-06-04T09:16:10.002Z,100470.63
2023-06-04T09:31:02.944Z,100473.23
2023-06-04T09:45:56.676Z,100458.20
2023-06-04T10:45:31.158Z,100445.80
2023-06-04T11:00:42.550Z,100442.12
2023-06-04T11:16:01.149Z,100448.67
2023-06-04T11:45:57.585Z,100423.66
2023-06-04T12:00:49.726Z,100433.58
2023-06-04T12:30:36.440Z,100411.89
2023-06-04T13:00:20.755Z,100399.47
2023-06-04T13:15:13.423Z,100386.24
2023-06-04T14:14:51.611Z,100361.70
2023-06-04T14:44:39.545Z,100349.58
2023-06-04T15:29:23.711Z,100324.06
2023-06-04T15:44:18.691Z,100324.77
2023-06-04T15:59:09.872Z,100318.89
2023-06-04T16:14:05.217Z,100309.64
2023-06-04T16:28:59.388Z,100294.75
2023-06-04T16:43:44.997Z,100287.46
2023-06-04T16:58:35.634Z,100295.80
2023-06-04T17:13:28.142Z,100291.73
2023-06-04T17:28:21.765Z,100287.89
2023-06-04T17:43:19.820Z,100291.38
2023-06-04T17:58:13.581Z,100297.09
2023-06-04T18:13:01.829Z,100301.81
2023-06-04T18:27:52.736Z,100312.32
2023-06-04T18:42:44.445Z,100312.15
2023-06-04T18:57:36.198Z,100316.04
2023-06-04T19:12:27.054Z,100320.83
2023-06-04T19:27:21.021Z,100332.05
2023-06-04T19:42:31.995Z,100346.36
2023-06-04T19:57:17.578Z,100360.48
2023-06-04T20:12:08.916Z,100367.09
2023-06-04T20:27:01.816Z,100377.18
2023-06-04T20:41:53.742Z,100373.78
2023-06-04T20:56:44.669Z,100380.84
2023-06-04T21:11:52.365Z,100394.52
2023-06-04T21:26:38.522Z,100395.14
2023-06-04T21:41:29.802Z,100402.46
2023-06-04T21:56:22.386Z,100394.98
2023-06-04T22:26:07.410Z,100414.48
2023-06-04T22:40:58.347Z,100414.59
2023-06-04T23:10:42.791Z,100420.20
